Flight Track Log - Related Links

Times and Time Zones

All times are in EDT time to prevent confusion due to time zone crossing. See the FSR411 flight status page for this flight to view local times or setup timezone preferences in your user account.

Time Position Orientation Groundspeed Altitude Reporting Facility
EDT Latitude Longitude Course Direction KTS km/h feet Rate Location/Type
Thu 07:26:09 40.0256 -88.2006 75° East 190 352 3.700  Level Chicago Center
Thu 07:27:11 40.0642 -88.1067 62° Northeast 242 447 7.400 3.122 Climbing Chicago Center
Thu 07:28:12 40.0950 -88.0125 67° East 278 515 10.100 2.341 Climbing Chicago Center
Thu 07:29:14 40.1325 -87.8967 67° East 340 629 12.200 2.146 Climbing Chicago Center
Thu 07:30:15 40.1747 -87.7681 67° East 379 702 14.500 3.098 Climbing Chicago Center
Thu 07:31:00 40.2598 -87.5509 75° East  Level FlightAware Approximate
Thu 07:31:16 40.2225 -87.6250 66° East 404 748 18.500  Level Chicago Center
Thu 07:32:18 40.2669 -87.4881 67° East 409 758 21.700 2.927 Climbing Chicago Center
Thu 07:33:19 40.3203 -87.3214 67° East 428 793 24.500 1.610 Climbing Chicago Center
Thu 07:34:21 40.3700 -87.1694 67° East 451 835 25.000 244 Climbing Chicago Center
Thu 07:35:22 40.4181 -87.0133 68° East 459 850 25.000  Level Chicago Center
Thu 07:36:24 40.4678 -86.8583 67° East 461 855 25.000  Level Chicago Center
Thu 07:37:26 40.5164 -86.7028 68° East 461 855 25.000  Level Chicago Center
Thu 07:38:28 40.5647 -86.5508 67° East 455 843 25.000  Level Chicago Center
Thu 07:39:29 40.6125 -86.3983 68° East 451 835 25.000  Level Chicago Center
Thu 07:40:30 40.6697 -86.2156 68° East 450 834 25.000  Level Chicago Center
Thu 07:41:32 40.7128 -86.0725 68° East 455 843 25.000  Level Chicago Center
Thu 07:42:34 40.7608 -85.9189 68° East 456 845 25.000  Level Chicago Center
Thu 07:43:35 40.8078 -85.7628 68° East 460 851 25.000 -439 Level Chicago Center
Thu 07:44:37 40.8644 -85.5769 68° East 458 848 24.100 -1.161 Descending Chicago Center
Thu 07:45:39 40.9108 -85.4264 68° East 449 832 22.600 -1.463 Descending Chicago Center
Thu 07:46:40 40.9581 -85.2778 67° East 443 821 21.100 -1.463 Descending Chicago Center
Thu 07:47:42 41.0014 -85.1317 69° East 437 810 19.600 -1.463 Descending Chicago Center
Thu 07:48:43 41.0442 -84.9942 68° East 416 771 18.100 -1.220 Descending Chicago Center
Thu 07:49:45 41.0861 -84.8592 68° East 406 752 17.100 -484 Descending Chicago Center
Thu 07:50:47 41.1353 -84.6992 68° East 395 732 17.100 -244 Level Chicago Center
Thu 07:51:48 41.1758 -84.5656 68° East 394 729 16.600 -829 Descending Chicago Center
Thu 07:52:50 41.2158 -84.4336 68° East 389 721 15.400 -1.161 Descending Chicago Center
Thu 07:53:52 41.2550 -84.3042 68° East 381 705 14.200 -1.220 Descending Chicago Center
Thu 07:54:53 41.2942 -84.1728 68° East 384 711 12.900 -1.412 Descending Chicago Center
Thu 07:55:34 41.3250 -84.0756 67° East 381 705 11.800 -1.366 Descending Cleveland Center
Thu 07:56:34 41.3622 -83.9503 68° East 369 684 10.600 -900 Descending Cleveland Center
Thu 07:57:34 41.3969 -83.8275 69° East 364 674 10.000 -300 Descending Cleveland Center
Thu 07:58:34 41.4336 -83.7047 68° East 359 665 10.000  Level Cleveland Center
Thu 07:59:34 41.4744 -83.5875 65° Northeast 352 652 10.000 50 Level Cleveland Center
Thu 08:00:34 41.5169 -83.4703 64° Northeast 352 652 10.100 50 Climbing Cleveland Center
Thu 08:01:34 41.5636 -83.3556 61° Northeast 352 652 10.100 -61 Level Cleveland Center
Thu 08:02:13 41.5903 -83.2847 63° Northeast 351 650 10.000 -60 Descending Cleveland Center
Thu 08:03:14 41.6389 -83.1700 60° Northeast 320 592 10.000  Level Cleveland Center
Thu 08:04:08 41.6700 -83.0850 64° Northeast 294 544 10.000  Level Cleveland Center
Thu 08:05:03 41.7072 -82.9947 61° Northeast 297 550 10.000 -224 Level Cleveland Center
Thu 08:06:22 41.7964 -82.9283 29° Northeast 282 523 9.500 -609 Descending Cleveland Center
Thu 08:07:11 41.8575 -82.8917 24° Northeast 281 520 8.700 -982 Descending Cleveland Center
Thu 08:08:12 41.9250 -82.8467 26° Northeast 278 515 7.700 -1.031 Descending Cleveland Center
Thu 08:09:19 42.0053 -82.7992 24° Northeast 265 491 6.500 -1.041 Descending Cleveland Center
Thu 08:10:13 42.0644 -82.7592 27° Northeast 267 494 5.600 -991 Descending Cleveland Center
Thu 08:11:14 42.1372 -82.7644 357° North 264 489 4.600 -750 Descending Cleveland Center
Thu 08:12:21 42.2094 -82.8089 335° Northwest 261 483 4.000 -281 Descending Cleveland Center
Thu 08:13:22 42.2667 -82.8672 323° Northwest 221 409 4.000 -414 Level Cleveland Center
Thu 08:14:17 42.3056 -82.9050 324° Northwest 188 348 3.200 -938 Descending Cleveland Center
Thu 08:15:30 42.3464 -82.9458 324° Northwest 152 282 2.000 -863 Descending Cleveland Center
Thu 08:16:36 42.3831 -82.9808 325° Northwest 125 232 1.200 -727 Descending Cleveland Center

Login

Don't have an account? Register now (free) for customized features, flight alerts, and more!